createdAt,value
2024-03-02T00:00:56.725Z,258.0
2024-03-02T00:06:28.370Z,228.5
2024-03-02T00:12:00.209Z,297.7
2024-03-02T00:17:36.118Z,287.7
2024-03-02T00:23:07.657Z,245.8
2024-03-02T00:28:39.985Z,255.7
2024-03-02T00:34:11.141Z,248.1
2024-03-02T00:39:42.578Z,221.6
2024-03-02T00:45:14.178Z,235.6
2024-03-02T00:50:45.802Z,216.1
2024-03-02T00:56:17.411Z,268.8
2024-03-02T01:01:49.193Z,227.3
2024-03-02T01:07:20.871Z,238.3
2024-03-02T01:12:52.471Z,260.0
2024-03-02T01:18:28.361Z,246.7
2024-03-02T01:23:59.917Z,266.8
2024-03-02T01:29:31.618Z,219.1
2024-03-02T01:35:03.200Z,239.0
2024-03-02T01:40:34.846Z,222.1
2024-03-02T01:46:06.560Z,257.8
2024-03-02T01:51:38.127Z,318.6
2024-03-02T01:57:09.857Z,418.3
2024-03-02T02:02:41.373Z,323.4
2024-03-02T02:08:13.647Z,335.8
2024-03-02T02:13:44.652Z,257.2
2024-03-02T02:19:20.674Z,269.9
2024-03-02T02:24:52.445Z,235.5
2024-03-02T02:30:24.051Z,267.2
2024-03-02T02:35:55.912Z,231.2
2024-03-02T02:41:27.205Z,374.1
2024-03-02T02:46:59.195Z,338.0
2024-03-02T02:52:30.436Z,256.0
2024-03-02T02:58:02.280Z,243.4
2024-03-02T03:03:33.770Z,263.9
2024-03-02T03:09:05.437Z,281.3
2024-03-02T03:14:37.215Z,227.5
2024-03-02T03:20:15.229Z,198.3
2024-03-02T03:25:46.661Z,269.2
2024-03-02T03:31:18.374Z,267.1
2024-03-02T03:36:50.050Z,142.7
2024-03-02T03:42:21.593Z,229.0
2024-03-02T03:47:53.166Z,198.3
2024-03-02T03:53:25.727Z,287.5
2024-03-02T03:58:56.358Z,237.1
2024-03-02T04:04:28.139Z,202.7
2024-03-02T04:10:01.425Z,212.4
2024-03-02T04:15:31.388Z,98.1
2024-03-02T04:21:09.301Z,264.0
2024-03-02T04:26:40.988Z,248.9
2024-03-02T04:32:12.603Z,273.6
2024-03-02T04:37:44.188Z,264.4
2024-03-02T04:43:15.765Z,168.4
2024-03-02T04:48:47.503Z,289.8
2024-03-02T04:54:19.075Z,294.6
2024-03-02T04:59:51.176Z,227.3
2024-03-02T05:05:22.473Z,204.4
2024-03-02T05:10:53.963Z,213.3
2024-03-02T05:16:25.625Z,220.1
2024-03-02T05:22:03.941Z,223.3
2024-03-02T05:27:35.587Z,196.7
2024-03-02T05:33:06.960Z,217.1
2024-03-02T05:38:38.577Z,219.2
2024-03-02T05:44:10.072Z,193.5
2024-03-02T05:49:41.718Z,236.7
2024-03-02T05:55:13.840Z,175.9
2024-03-02T06:00:45.479Z,256.7
2024-03-02T06:06:16.771Z,230.5
2024-03-02T06:11:48.372Z,245.7
2024-03-02T06:17:20.045Z,238.6
2024-03-02T06:22:55.964Z,297.1
2024-03-02T06:28:27.595Z,260.0
2024-03-02T06:33:59.298Z,335.7
2024-03-02T06:39:30.919Z,313.5
2024-03-02T06:45:02.463Z,132.6
2024-03-02T06:50:34.137Z,279.7
2024-03-02T06:56:05.758Z,249.4
2024-03-02T07:01:37.420Z,187.8
2024-03-02T07:07:09.539Z,293.6
2024-03-02T07:12:40.711Z,290.2
2024-03-02T07:18:12.280Z,206.7
2024-03-02T07:23:48.385Z,228.6
2024-03-02T07:29:19.830Z,178.8
2024-03-02T07:34:51.518Z,285.1
2024-03-02T07:40:23.122Z,140.9
2024-03-02T07:45:54.980Z,216.4
2024-03-02T07:51:26.468Z,195.9
2024-03-02T07:56:58.035Z,82.4
2024-03-02T08:02:29.673Z,116.2
2024-03-02T08:08:01.497Z,119.6
2024-03-02T08:13:33.383Z,113.7
2024-03-02T08:19:04.885Z,232.3
2024-03-02T08:24:40.657Z,198.0
2024-03-02T08:30:12.289Z,235.3
2024-03-02T08:35:43.981Z,344.9
2024-03-02T08:41:15.682Z,217.0
2024-03-02T08:46:47.244Z,77.5
2024-03-02T08:52:18.871Z,50.8
2024-03-02T08:57:50.571Z,30.4
2024-03-02T09:03:22.214Z,44.4
2024-03-02T09:08:53.698Z,38.8
2024-03-02T09:14:25.423Z,34.8
2024-03-02T09:19:57.069Z,28.1
2024-03-02T09:25:35.192Z,42.5
2024-03-02T09:31:06.979Z,33.2
2024-03-02T09:36:38.538Z,29.3
2024-03-02T09:42:10.125Z,61.3
2024-03-02T09:47:41.744Z,45.2
2024-03-02T09:53:13.446Z,58.6
2024-03-02T09:58:45.294Z,8.0
2024-03-02T10:04:16.876Z,44.8
2024-03-02T10:09:48.666Z,49.4
2024-03-02T10:15:19.939Z,52.2
2024-03-02T10:20:51.548Z,79.3
2024-03-02T10:26:27.504Z,68.8
2024-03-02T10:31:59.177Z,115.1
2024-03-02T10:37:30.762Z,158.7
2024-03-02T10:43:04.558Z,110.2
2024-03-02T10:48:34.231Z,126.4
2024-03-02T10:54:05.656Z,119.4
2024-03-02T10:59:37.388Z,110.8
2024-03-02T11:05:09.151Z,29.3
2024-03-02T11:10:40.826Z,73.0
2024-03-02T11:16:12.155Z,49.3
2024-03-02T11:21:43.858Z,131.2
2024-03-02T11:27:21.989Z,47.6
2024-03-02T11:32:53.576Z,101.4
2024-03-02T11:38:25.180Z,52.8
2024-03-02T11:43:56.790Z,60.0
2024-03-02T11:49:28.386Z,93.1
2024-03-02T11:55:00.339Z,89.1
2024-03-02T12:00:31.783Z,422.8
2024-03-02T12:06:03.372Z,181.5
2024-03-02T12:11:35.115Z,124.0
2024-03-02T12:17:06.705Z,176.6
2024-03-02T12:22:38.181Z,98.7
2024-03-02T12:28:16.167Z,300.6
2024-03-02T12:33:48.099Z,93.6
2024-03-02T12:39:19.424Z,207.6
2024-03-02T12:44:51.954Z,627.2
2024-03-02T12:50:23.527Z,158.6
2024-03-02T12:55:54.472Z,121.4
2024-03-02T13:01:26.306Z,191.3
2024-03-02T13:06:57.889Z,391.2
2024-03-02T13:12:29.360Z,393.3
2024-03-02T13:18:00.869Z,171.3
2024-03-02T13:23:32.506Z,128.2
2024-03-02T13:29:10.588Z,124.5
2024-03-02T13:34:42.164Z,37.6
2024-03-02T13:40:13.954Z,103.8
2024-03-02T13:45:45.426Z,79.8
2024-03-02T13:51:16.941Z,66.4
2024-03-02T13:56:48.697Z,152.8
2024-03-02T14:02:20.236Z,736.6
2024-03-02T14:07:51.886Z,95.4
2024-03-02T14:13:23.595Z,267.2
2024-03-02T14:18:55.270Z,104.7
2024-03-02T14:24:26.906Z,60.3
2024-03-02T14:30:04.893Z,568.6
2024-03-02T14:35:36.512Z,703.8
2024-03-02T14:41:08.207Z,432.7
2024-03-02T14:46:40.048Z,181.6
2024-03-02T14:52:11.470Z,263.4
2024-03-02T14:57:43.087Z,316.4
2024-03-02T15:03:14.608Z,141.1
2024-03-02T15:08:46.209Z,366.4
2024-03-02T15:14:17.812Z,404.6
2024-03-02T15:19:49.583Z,608.7
2024-03-02T15:25:21.408Z,1156.8
2024-03-02T15:30:57.644Z,508.3
2024-03-02T15:36:28.836Z,898.5
2024-03-02T15:42:00.430Z,906.9
2024-03-02T15:47:31.996Z,921.6
2024-03-02T15:53:03.677Z,881.8
2024-03-02T15:58:35.292Z,781.9
2024-03-02T16:04:06.977Z,896.0
2024-03-02T16:09:38.618Z,988.8
2024-03-02T16:15:10.160Z,930.6
2024-03-02T16:20:41.900Z,933.6
2024-03-02T16:26:13.477Z,814.1
2024-03-02T16:31:50.102Z,936.9
2024-03-02T16:37:21.201Z,907.7
2024-03-02T16:42:52.735Z,1236.6
2024-03-02T16:48:24.887Z,675.1
2024-03-02T16:53:55.962Z,599.6
2024-03-02T16:59:27.571Z,536.4
2024-03-02T17:04:59.176Z,513.4
2024-03-02T17:10:30.948Z,372.6
2024-03-02T17:16:02.559Z,570.3
2024-03-02T17:21:34.598Z,644.8
2024-03-02T17:27:05.735Z,937.9
2024-03-02T17:32:41.870Z,583.8
2024-03-02T17:38:13.433Z,673.5
2024-03-02T17:43:45.328Z,950.5
2024-03-02T17:49:20.944Z,624.2
2024-03-02T17:54:48.393Z,120.6
2024-03-02T18:00:19.951Z,413.8
2024-03-02T18:05:51.749Z,480.3
2024-03-02T18:11:23.267Z,261.9
2024-03-02T18:16:55.269Z,349.6
2024-03-02T18:22:26.524Z,366.5
2024-03-02T18:27:58.240Z,288.6
2024-03-02T18:33:36.553Z,360.9
2024-03-02T18:39:07.749Z,105.1
2024-03-02T18:44:39.430Z,181.2
2024-03-02T18:50:11.588Z,104.5
2024-03-02T18:55:42.717Z,136.3
2024-03-02T19:01:14.650Z,173.1
2024-03-02T19:06:45.988Z,213.9
2024-03-02T19:12:18.087Z,98.7
2024-03-02T19:17:49.291Z,72.0
2024-03-02T19:23:32.533Z,139.7
2024-03-02T19:28:52.699Z,97.2
2024-03-02T19:34:28.545Z,103.6
2024-03-02T19:40:00.176Z,123.6
2024-03-02T19:45:31.830Z,151.5
2024-03-02T19:51:03.437Z,124.7
2024-03-02T19:56:35.038Z,71.3
2024-03-02T20:02:06.764Z,64.6
2024-03-02T20:07:38.270Z,120.3
2024-03-02T20:13:10.025Z,51.6
2024-03-02T20:18:41.734Z,86.8
2024-03-02T20:24:13.193Z,314.6
2024-03-02T20:29:44.733Z,132.8
2024-03-02T20:35:20.837Z,199.9
2024-03-02T20:40:52.413Z,185.4
2024-03-02T20:46:24.202Z,128.2
2024-03-02T20:51:55.727Z,170.4
2024-03-02T20:57:27.302Z,75.9
2024-03-02T21:02:58.920Z,196.5
2024-03-02T21:08:30.467Z,67.8
2024-03-02T21:14:02.114Z,88.1
2024-03-02T21:19:34.195Z,67.7
2024-03-02T21:25:05.462Z,89.3
2024-03-02T21:30:37.129Z,170.2
2024-03-02T21:36:13.139Z,119.9
2024-03-02T21:41:44.942Z,84.5
2024-03-02T21:47:16.688Z,72.7
2024-03-02T21:52:48.025Z,112.8
2024-03-02T21:58:19.674Z,81.6
2024-03-02T22:03:51.923Z,93.6
2024-03-02T22:09:22.906Z,100.1
2024-03-02T22:14:55.368Z,97.5
2024-03-02T22:20:26.106Z,123.9
2024-03-02T22:25:57.812Z,92.1
2024-03-02T22:31:29.315Z,124.7
2024-03-02T22:37:05.949Z,92.9
2024-03-02T22:42:37.122Z,99.1
2024-03-02T22:48:08.927Z,167.6
2024-03-02T22:53:40.137Z,164.5
2024-03-02T22:59:11.887Z,215.2
2024-03-02T23:04:43.493Z,277.4
2024-03-02T23:10:15.555Z,301.7
2024-03-02T23:15:46.821Z,383.4
2024-03-02T23:21:18.437Z,326.7
2024-03-02T23:26:50.094Z,325.2
2024-03-02T23:32:21.720Z,363.4
2024-03-02T23:37:57.728Z,352.2
2024-03-02T23:43:29.397Z,338.0
2024-03-02T23:49:01.593Z,386.7
2024-03-02T23:54:32.583Z,376.5
